sensor_id;sensor_type;location;lat;lon;timestamp;P1;durP1;ratioP1;P2;durP2;ratioP2
62848;SDS011;48941;49.516;8.286;2022-11-20T00:01:04;26.75;;;15.30;;
62848;SDS011;48941;49.516;8.286;2022-11-20T00:03:33;27.98;;;14.85;;
62848;SDS011;48941;49.516;8.286;2022-11-20T00:06:01;27.90;;;15.18;;
62848;SDS011;48941;49.516;8.286;2022-11-20T00:08:29;27.50;;;14.68;;
62848;SDS011;48941;49.516;8.286;2022-11-20T00:11:01;30.40;;;15.63;;
62848;SDS011;48941;49.516;8.286;2022-11-20T00:13:30;27.67;;;14.98;;
62848;SDS011;48941;49.516;8.286;2022-11-20T00:15:58;24.85;;;14.63;;
62848;SDS011;48941;49.516;8.286;2022-11-20T00:18:27;27.92;;;14.70;;
62848;SDS011;48941;49.516;8.286;2022-11-20T00:21:00;28.63;;;15.32;;
62848;SDS011;48941;49.516;8.286;2022-11-20T00:25:56;27.85;;;14.50;;
62848;SDS011;48941;49.516;8.286;2022-11-20T00:28:24;28.23;;;15.63;;
62848;SDS011;48941;49.516;8.286;2022-11-20T00:30:52;28.30;;;14.63;;
62848;SDS011;48941;49.516;8.286;2022-11-20T00:33:19;25.10;;;13.80;;
62848;SDS011;48941;49.516;8.286;2022-11-20T00:35:49;27.20;;;13.95;;
62848;SDS011;48941;49.516;8.286;2022-11-20T00:38:16;27.00;;;14.80;;
62848;SDS011;48941;49.516;8.286;2022-11-20T00:40:44;27.75;;;14.35;;
62848;SDS011;48941;49.516;8.286;2022-11-20T00:43:18;25.15;;;14.90;;
62848;SDS011;48941;49.516;8.286;2022-11-20T00:45:46;25.05;;;14.18;;
62848;SDS011;48941;49.516;8.286;2022-11-20T00:48:14;25.50;;;14.60;;
62848;SDS011;48941;49.516;8.286;2022-11-20T00:50:42;28.27;;;15.45;;
62848;SDS011;48941;49.516;8.286;2022-11-20T00:53:11;25.55;;;14.73;;
62848;SDS011;48941;49.516;8.286;2022-11-20T00:55:39;29.02;;;15.10;;
62848;SDS011;48941;49.516;8.286;2022-11-20T00:58:07;31.85;;;15.65;;
62848;SDS011;48941;49.516;8.286;2022-11-20T01:00:39;29.10;;;14.60;;
62848;SDS011;48941;49.516;8.286;2022-11-20T01:03:07;28.35;;;15.55;;
62848;SDS011;48941;49.516;8.286;2022-11-20T01:05:35;27.33;;;14.23;;
62848;SDS011;48941;49.516;8.286;2022-11-20T01:08:03;31.27;;;14.63;;
62848;SDS011;48941;49.516;8.286;2022-11-20T01:10:32;28.48;;;14.15;;
62848;SDS011;48941;49.516;8.286;2022-11-20T01:13:00;25.33;;;13.77;;
62848;SDS011;48941;49.516;8.286;2022-11-20T01:15:46;27.65;;;14.45;;
62848;SDS011;48941;49.516;8.286;2022-11-20T01:18:14;25.73;;;14.02;;
62848;SDS011;48941;49.516;8.286;2022-11-20T01:20:42;24.00;;;13.75;;
62848;SDS011;48941;49.516;8.286;2022-11-20T01:23:09;27.45;;;14.60;;
62848;SDS011;48941;49.516;8.286;2022-11-20T01:25:39;27.20;;;15.13;;
62848;SDS011;48941;49.516;8.286;2022-11-20T01:28:07;28.38;;;15.20;;
62848;SDS011;48941;49.516;8.286;2022-11-20T01:30:34;29.58;;;16.10;;
62848;SDS011;48941;49.516;8.286;2022-11-20T01:33:02;25.63;;;14.55;;
62848;SDS011;48941;49.516;8.286;2022-11-20T01:35:30;25.48;;;14.38;;
62848;SDS011;48941;49.516;8.286;2022-11-20T01:37:57;28.08;;;14.57;;
62848;SDS011;48941;49.516;8.286;2022-11-20T01:40:25;27.70;;;15.25;;
62848;SDS011;48941;49.516;8.286;2022-11-20T01:42:57;27.70;;;14.55;;
62848;SDS011;48941;49.516;8.286;2022-11-20T01:46:01;27.40;;;14.80;;
62848;SDS011;48941;49.516;8.286;2022-11-20T01:48:40;25.65;;;14.35;;
62848;SDS011;48941;49.516;8.286;2022-11-20T01:51:15;26.95;;;14.88;;
62848;SDS011;48941;49.516;8.286;2022-11-20T01:53:48;28.80;;;14.85;;
62848;SDS011;48941;49.516;8.286;2022-11-20T01:56:17;27.50;;;14.27;;
62848;SDS011;48941;49.516;8.286;2022-11-20T01:58:47;26.02;;;14.20;;
62848;SDS011;48941;49.516;8.286;2022-11-20T02:01:19;25.33;;;13.63;;
62848;SDS011;48941;49.516;8.286;2022-11-20T02:03:47;26.20;;;13.57;;
62848;SDS011;48941;49.516;8.286;2022-11-20T02:06:17;27.45;;;14.60;;
62848;SDS011;48941;49.516;8.286;2022-11-20T02:08:50;23.73;;;13.38;;
62848;SDS011;48941;49.516;8.286;2022-11-20T02:11:18;25.40;;;14.40;;
62848;SDS011;48941;49.516;8.286;2022-11-20T02:13:48;25.55;;;14.13;;
62848;SDS011;48941;49.516;8.286;2022-11-20T02:16:17;24.20;;;13.65;;
62848;SDS011;48941;49.516;8.286;2022-11-20T02:18:48;22.83;;;13.15;;
62848;SDS011;48941;49.516;8.286;2022-11-20T02:21:22;28.77;;;15.13;;
62848;SDS011;48941;49.516;8.286;2022-11-20T02:24:02;26.70;;;14.25;;
62848;SDS011;48941;49.516;8.286;2022-11-20T02:26:33;25.98;;;13.93;;
62848;SDS011;48941;49.516;8.286;2022-11-20T02:29:06;27.35;;;13.95;;
62848;SDS011;48941;49.516;8.286;2022-11-20T02:31:36;24.50;;;13.52;;
62848;SDS011;48941;49.516;8.286;2022-11-20T02:34:05;25.10;;;13.90;;
62848;SDS011;48941;49.516;8.286;2022-11-20T02:36:33;25.83;;;13.82;;
62848;SDS011;48941;49.516;8.286;2022-11-20T02:39:04;24.65;;;13.80;;
62848;SDS011;48941;49.516;8.286;2022-11-20T02:41:33;26.95;;;13.55;;
62848;SDS011;48941;49.516;8.286;2022-11-20T02:44:02;26.90;;;13.50;;
62848;SDS011;48941;49.516;8.286;2022-11-20T02:46:30;27.35;;;12.93;;
62848;SDS011;48941;49.516;8.286;2022-11-20T02:49:00;25.27;;;13.15;;
62848;SDS011;48941;49.516;8.286;2022-11-20T02:51:28;28.40;;;14.15;;
62848;SDS011;48941;49.516;8.286;2022-11-20T02:53:56;24.52;;;13.70;;
62848;SDS011;48941;49.516;8.286;2022-11-20T02:56:26;25.92;;;13.80;;
62848;SDS011;48941;49.516;8.286;2022-11-20T02:58:54;22.60;;;12.82;;
62848;SDS011;48941;49.516;8.286;2022-11-20T03:01:22;24.42;;;13.43;;
62848;SDS011;48941;49.516;8.286;2022-11-20T03:03:50;22.80;;;12.73;;
62848;SDS011;48941;49.516;8.286;2022-11-20T03:06:20;23.95;;;13.20;;
62848;SDS011;48941;49.516;8.286;2022-11-20T03:08:48;23.83;;;13.40;;
62848;SDS011;48941;49.516;8.286;2022-11-20T03:11:16;24.45;;;13.60;;
62848;SDS011;48941;49.516;8.286;2022-11-20T03:13:46;25.00;;;13.45;;
62848;SDS011;48941;49.516;8.286;2022-11-20T03:16:15;25.65;;;13.68;;
62848;SDS011;48941;49.516;8.286;2022-11-20T03:18:44;25.10;;;13.82;;
62848;SDS011;48941;49.516;8.286;2022-11-20T03:21:12;24.58;;;13.25;;
62848;SDS011;48941;49.516;8.286;2022-11-20T03:23:41;24.58;;;13.45;;
62848;SDS011;48941;49.516;8.286;2022-11-20T03:26:09;26.38;;;14.55;;
62848;SDS011;48941;49.516;8.286;2022-11-20T03:28:39;25.92;;;13.38;;
62848;SDS011;48941;49.516;8.286;2022-11-20T03:31:09;25.73;;;13.07;;
62848;SDS011;48941;49.516;8.286;2022-11-20T03:33:38;22.27;;;12.85;;
62848;SDS011;48941;49.516;8.286;2022-11-20T03:36:08;25.05;;;13.68;;
62848;SDS011;48941;49.516;8.286;2022-11-20T03:38:38;22.27;;;13.40;;
62848;SDS011;48941;49.516;8.286;2022-11-20T03:41:07;24.13;;;13.20;;
62848;SDS011;48941;49.516;8.286;2022-11-20T03:43:36;26.48;;;13.23;;
62848;SDS011;48941;49.516;8.286;2022-11-20T03:46:04;24.60;;;11.93;;
62848;SDS011;48941;49.516;8.286;2022-11-20T03:48:34;25.13;;;13.73;;
62848;SDS011;48941;49.516;8.286;2022-11-20T03:51:09;25.10;;;13.45;;
62848;SDS011;48941;49.516;8.286;2022-11-20T03:53:38;22.33;;;12.25;;
62848;SDS011;48941;49.516;8.286;2022-11-20T03:56:06;20.55;;;11.77;;
62848;SDS011;48941;49.516;8.286;2022-11-20T03:58:35;22.85;;;12.95;;
62848;SDS011;48941;49.516;8.286;2022-11-20T04:01:06;19.27;;;11.35;;
62848;SDS011;48941;49.516;8.286;2022-11-20T04:03:37;22.10;;;11.65;;
62848;SDS011;48941;49.516;8.286;2022-11-20T04:06:06;22.67;;;12.18;;
62848;SDS011;48941;49.516;8.286;2022-11-20T04:08:36;21.33;;;12.50;;
62848;SDS011;48941;49.516;8.286;2022-11-20T04:11:08;20.80;;;11.48;;
62848;SDS011;48941;49.516;8.286;2022-11-20T04:13:36;20.92;;;12.00;;
62848;SDS011;48941;49.516;8.286;2022-11-20T04:16:05;23.00;;;12.45;;
62848;SDS011;48941;49.516;8.286;2022-11-20T04:18:34;23.00;;;11.75;;
62848;SDS011;48941;49.516;8.286;2022-11-20T04:21:04;21.92;;;12.15;;
62848;SDS011;48941;49.516;8.286;2022-11-20T04:23:32;22.77;;;11.32;;
62848;SDS011;48941;49.516;8.286;2022-11-20T04:26:00;19.75;;;11.38;;
62848;SDS011;48941;49.516;8.286;2022-11-20T04:28:29;20.70;;;10.88;;
62848;SDS011;48941;49.516;8.286;2022-11-20T04:31:04;20.13;;;11.43;;
62848;SDS011;48941;49.516;8.286;2022-11-20T04:33:33;20.30;;;11.63;;
62848;SDS011;48941;49.516;8.286;2022-11-20T04:36:02;20.95;;;12.30;;
62848;SDS011;48941;49.516;8.286;2022-11-20T04:38:32;21.17;;;12.18;;
62848;SDS011;48941;49.516;8.286;2022-11-20T04:41:01;21.70;;;11.80;;
62848;SDS011;48941;49.516;8.286;2022-11-20T04:43:30;22.95;;;12.43;;
62848;SDS011;48941;49.516;8.286;2022-11-20T04:45:58;22.98;;;11.88;;
62848;SDS011;48941;49.516;8.286;2022-11-20T04:48:28;21.80;;;11.60;;
62848;SDS011;48941;49.516;8.286;2022-11-20T04:50:56;24.90;;;13.75;;
62848;SDS011;48941;49.516;8.286;2022-11-20T04:53:25;23.17;;;11.65;;
62848;SDS011;48941;49.516;8.286;2022-11-20T04:55:58;20.05;;;11.75;;
62848;SDS011;48941;49.516;8.286;2022-11-20T04:58:27;23.40;;;11.88;;
62848;SDS011;48941;49.516;8.286;2022-11-20T05:01:00;19.20;;;10.57;;
62848;SDS011;48941;49.516;8.286;2022-11-20T05:03:28;21.52;;;11.88;;
62848;SDS011;48941;49.516;8.286;2022-11-20T05:05:56;19.83;;;11.02;;
62848;SDS011;48941;49.516;8.286;2022-11-20T05:08:28;20.65;;;11.43;;
62848;SDS011;48941;49.516;8.286;2022-11-20T05:10:59;19.00;;;10.60;;
62848;SDS011;48941;49.516;8.286;2022-11-20T05:13:27;21.25;;;11.45;;
62848;SDS011;48941;49.516;8.286;2022-11-20T05:15:55;21.67;;;11.48;;
62848;SDS011;48941;49.516;8.286;2022-11-20T05:18:28;19.23;;;10.27;;
62848;SDS011;48941;49.516;8.286;2022-11-20T05:20:55;18.67;;;10.30;;
62848;SDS011;48941;49.516;8.286;2022-11-20T05:23:23;19.45;;;10.50;;
62848;SDS011;48941;49.516;8.286;2022-11-20T05:25:54;19.08;;;10.30;;
62848;SDS011;48941;49.516;8.286;2022-11-20T05:28:25;20.10;;;11.23;;
62848;SDS011;48941;49.516;8.286;2022-11-20T05:30:53;21.33;;;11.25;;
62848;SDS011;48941;49.516;8.286;2022-11-20T05:33:21;19.15;;;11.25;;
62848;SDS011;48941;49.516;8.286;2022-11-20T05:35:49;18.50;;;11.35;;
62848;SDS011;48941;49.516;8.286;2022-11-20T05:38:17;18.70;;;10.93;;
62848;SDS011;48941;49.516;8.286;2022-11-20T05:40:44;21.73;;;11.80;;
62848;SDS011;48941;49.516;8.286;2022-11-20T05:43:14;20.38;;;11.27;;
62848;SDS011;48941;49.516;8.286;2022-11-20T05:45:41;21.15;;;11.70;;
62848;SDS011;48941;49.516;8.286;2022-11-20T05:48:11;19.75;;;10.93;;
62848;SDS011;48941;49.516;8.286;2022-11-20T05:50:39;19.73;;;10.90;;
62848;SDS011;48941;49.516;8.286;2022-11-20T05:53:06;22.15;;;11.65;;
62848;SDS011;48941;49.516;8.286;2022-11-20T05:55:34;19.70;;;11.07;;
62848;SDS011;48941;49.516;8.286;2022-11-20T05:58:02;20.48;;;11.68;;
62848;SDS011;48941;49.516;8.286;2022-11-20T06:00:31;20.27;;;11.73;;
62848;SDS011;48941;49.516;8.286;2022-11-20T06:02:59;21.05;;;11.07;;
62848;SDS011;48941;49.516;8.286;2022-11-20T06:05:26;20.58;;;11.50;;
62848;SDS011;48941;49.516;8.286;2022-11-20T06:07:54;20.45;;;11.23;;
62848;SDS011;48941;49.516;8.286;2022-11-20T06:10:22;21.42;;;11.60;;
62848;SDS011;48941;49.516;8.286;2022-11-20T06:12:50;19.92;;;11.45;;
62848;SDS011;48941;49.516;8.286;2022-11-20T06:15:17;22.17;;;12.00;;
62848;SDS011;48941;49.516;8.286;2022-11-20T06:17:46;20.73;;;12.02;;
62848;SDS011;48941;49.516;8.286;2022-11-20T06:20:14;20.20;;;11.02;;
62848;SDS011;48941;49.516;8.286;2022-11-20T06:22:42;19.65;;;11.02;;
62848;SDS011;48941;49.516;8.286;2022-11-20T06:25:10;19.35;;;11.35;;
62848;SDS011;48941;49.516;8.286;2022-11-20T06:27:37;19.92;;;11.10;;
62848;SDS011;48941;49.516;8.286;2022-11-20T06:30:05;21.52;;;11.65;;
62848;SDS011;48941;49.516;8.286;2022-11-20T06:32:34;22.52;;;11.55;;
62848;SDS011;48941;49.516;8.286;2022-11-20T06:35:03;21.63;;;11.35;;
62848;SDS011;48941;49.516;8.286;2022-11-20T06:37:31;19.05;;;10.45;;
62848;SDS011;48941;49.516;8.286;2022-11-20T06:39:59;21.23;;;11.02;;
62848;SDS011;48941;49.516;8.286;2022-11-20T06:42:27;20.10;;;11.85;;
62848;SDS011;48941;49.516;8.286;2022-11-20T06:44:55;18.38;;;10.75;;
62848;SDS011;48941;49.516;8.286;2022-11-20T06:47:23;20.88;;;10.88;;
62848;SDS011;48941;49.516;8.286;2022-11-20T06:49:51;21.75;;;10.85;;
62848;SDS011;48941;49.516;8.286;2022-11-20T06:52:20;20.00;;;10.73;;
62848;SDS011;48941;49.516;8.286;2022-11-20T06:54:48;18.60;;;10.85;;
62848;SDS011;48941;49.516;8.286;2022-11-20T06:57:15;19.73;;;11.75;;
62848;SDS011;48941;49.516;8.286;2022-11-20T06:59:43;20.50;;;10.80;;
62848;SDS011;48941;49.516;8.286;2022-11-20T07:02:11;20.73;;;11.00;;
62848;SDS011;48941;49.516;8.286;2022-11-20T07:04:39;22.30;;;11.40;;
62848;SDS011;48941;49.516;8.286;2022-11-20T07:07:07;21.35;;;11.40;;
62848;SDS011;48941;49.516;8.286;2022-11-20T07:09:37;21.67;;;11.30;;
62848;SDS011;48941;49.516;8.286;2022-11-20T07:12:05;22.60;;;11.75;;
62848;SDS011;48941;49.516;8.286;2022-11-20T07:14:33;22.80;;;12.07;;
62848;SDS011;48941;49.516;8.286;2022-11-20T07:17:01;22.63;;;11.95;;
62848;SDS011;48941;49.516;8.286;2022-11-20T07:19:29;22.10;;;12.15;;
62848;SDS011;48941;49.516;8.286;2022-11-20T07:21:57;21.63;;;11.88;;
62848;SDS011;48941;49.516;8.286;2022-11-20T07:24:25;21.27;;;11.75;;
62848;SDS011;48941;49.516;8.286;2022-11-20T07:26:54;22.60;;;12.40;;
62848;SDS011;48941;49.516;8.286;2022-11-20T07:29:21;23.60;;;12.43;;
62848;SDS011;48941;49.516;8.286;2022-11-20T07:31:49;24.23;;;12.35;;
62848;SDS011;48941;49.516;8.286;2022-11-20T07:34:17;21.65;;;11.63;;
62848;SDS011;48941;49.516;8.286;2022-11-20T07:36:46;20.08;;;11.40;;
62848;SDS011;48941;49.516;8.286;2022-11-20T07:39:13;21.52;;;11.75;;
62848;SDS011;48941;49.516;8.286;2022-11-20T07:41:42;22.00;;;12.32;;
62848;SDS011;48941;49.516;8.286;2022-11-20T07:44:11;20.55;;;11.38;;
62848;SDS011;48941;49.516;8.286;2022-11-20T07:46:39;21.38;;;11.85;;
62848;SDS011;48941;49.516;8.286;2022-11-20T07:49:06;21.77;;;11.73;;
62848;SDS011;48941;49.516;8.286;2022-11-20T07:51:34;22.05;;;12.35;;
62848;SDS011;48941;49.516;8.286;2022-11-20T07:54:02;20.25;;;11.27;;
62848;SDS011;48941;49.516;8.286;2022-11-20T07:56:30;22.30;;;12.27;;
62848;SDS011;48941;49.516;8.286;2022-11-20T07:58:58;21.98;;;11.98;;
62848;SDS011;48941;49.516;8.286;2022-11-20T08:01:27;21.08;;;11.82;;
62848;SDS011;48941;49.516;8.286;2022-11-20T08:03:54;19.58;;;11.32;;
62848;SDS011;48941;49.516;8.286;2022-11-20T08:06:22;24.38;;;11.52;;
62848;SDS011;48941;49.516;8.286;2022-11-20T08:08:50;21.40;;;11.63;;
62848;SDS011;48941;49.516;8.286;2022-11-20T08:11:18;20.77;;;11.20;;
62848;SDS011;48941;49.516;8.286;2022-11-20T08:14:03;22.42;;;11.77;;
62848;SDS011;48941;49.516;8.286;2022-11-20T08:16:42;20.92;;;11.63;;
62848;SDS011;48941;49.516;8.286;2022-11-20T08:19:12;22.45;;;12.40;;
62848;SDS011;48941;49.516;8.286;2022-11-20T08:21:40;21.23;;;11.75;;
62848;SDS011;48941;49.516;8.286;2022-11-20T08:24:08;20.80;;;11.40;;
62848;SDS011;48941;49.516;8.286;2022-11-20T08:26:37;24.42;;;12.60;;
62848;SDS011;48941;49.516;8.286;2022-11-20T08:29:06;20.90;;;11.52;;
62848;SDS011;48941;49.516;8.286;2022-11-20T08:31:34;21.73;;;11.23;;
62848;SDS011;48941;49.516;8.286;2022-11-20T08:34:03;19.80;;;10.63;;
62848;SDS011;48941;49.516;8.286;2022-11-20T08:36:34;19.30;;;11.23;;
62848;SDS011;48941;49.516;8.286;2022-11-20T08:39:02;23.90;;;12.52;;
62848;SDS011;48941;49.516;8.286;2022-11-20T08:41:30;24.73;;;12.50;;
62848;SDS011;48941;49.516;8.286;2022-11-20T08:44:00;23.77;;;12.77;;
62848;SDS011;48941;49.516;8.286;2022-11-20T08:46:31;27.35;;;13.73;;
62848;SDS011;48941;49.516;8.286;2022-11-20T08:49:00;24.40;;;13.20;;
62848;SDS011;48941;49.516;8.286;2022-11-20T08:51:30;27.38;;;13.23;;
62848;SDS011;48941;49.516;8.286;2022-11-20T08:53:59;24.95;;;12.75;;
62848;SDS011;48941;49.516;8.286;2022-11-20T08:56:26;24.80;;;13.43;;
62848;SDS011;48941;49.516;8.286;2022-11-20T08:58:55;24.60;;;13.05;;
62848;SDS011;48941;49.516;8.286;2022-11-20T09:01:42;24.60;;;12.88;;
62848;SDS011;48941;49.516;8.286;2022-11-20T09:04:10;24.55;;;13.07;;
62848;SDS011;48941;49.516;8.286;2022-11-20T09:06:41;24.00;;;13.23;;
62848;SDS011;48941;49.516;8.286;2022-11-20T09:09:09;24.23;;;12.38;;
62848;SDS011;48941;49.516;8.286;2022-11-20T09:11:37;25.88;;;13.25;;
62848;SDS011;48941;49.516;8.286;2022-11-20T09:14:05;28.23;;;14.68;;
62848;SDS011;48941;49.516;8.286;2022-11-20T09:16:32;25.48;;;13.25;;
62848;SDS011;48941;49.516;8.286;2022-11-20T09:19:00;29.83;;;14.40;;
62848;SDS011;48941;49.516;8.286;2022-11-20T09:21:49;25.65;;;13.38;;
62848;SDS011;48941;49.516;8.286;2022-11-20T09:24:24;28.35;;;14.15;;
62848;SDS011;48941;49.516;8.286;2022-11-20T09:26:52;27.48;;;13.80;;
62848;SDS011;48941;49.516;8.286;2022-11-20T09:29:20;29.27;;;14.10;;
62848;SDS011;48941;49.516;8.286;2022-11-20T09:31:48;25.90;;;13.93;;
62848;SDS011;48941;49.516;8.286;2022-11-20T09:34:16;26.05;;;14.27;;
62848;SDS011;48941;49.516;8.286;2022-11-20T09:36:44;26.70;;;14.52;;
62848;SDS011;48941;49.516;8.286;2022-11-20T09:39:13;28.75;;;14.63;;
62848;SDS011;48941;49.516;8.286;2022-11-20T09:44:54;28.38;;;14.77;;
62848;SDS011;48941;49.516;8.286;2022-11-20T09:47:43;33.45;;;16.95;;
62848;SDS011;48941;49.516;8.286;2022-11-20T09:50:23;31.45;;;15.73;;
62848;SDS011;48941;49.516;8.286;2022-11-20T09:53:01;35.15;;;16.58;;
62848;SDS011;48941;49.516;8.286;2022-11-20T09:55:39;34.20;;;16.38;;
62848;SDS011;48941;49.516;8.286;2022-11-20T09:58:13;34.25;;;16.27;;
62848;SDS011;48941;49.516;8.286;2022-11-20T10:00:48;33.35;;;16.23;;
62848;SDS011;48941;49.516;8.286;2022-11-20T10:03:21;32.33;;;15.52;;
62848;SDS011;48941;49.516;8.286;2022-11-20T10:06:03;36.38;;;16.85;;
62848;SDS011;48941;49.516;8.286;2022-11-20T10:08:36;36.65;;;16.98;;
62848;SDS011;48941;49.516;8.286;2022-11-20T10:11:11;33.75;;;17.02;;
62848;SDS011;48941;49.516;8.286;2022-11-20T10:13:48;31.08;;;15.45;;
62848;SDS011;48941;49.516;8.286;2022-11-20T10:16:26;29.10;;;15.65;;
62848;SDS011;48941;49.516;8.286;2022-11-20T10:19:10;31.90;;;15.68;;
62848;SDS011;48941;49.516;8.286;2022-11-20T10:21:54;31.48;;;16.75;;
62848;SDS011;48941;49.516;8.286;2022-11-20T10:24:34;29.40;;;15.15;;
62848;SDS011;48941;49.516;8.286;2022-11-20T10:27:15;29.48;;;14.75;;
62848;SDS011;48941;49.516;8.286;2022-11-20T10:29:59;32.00;;;15.63;;
62848;SDS011;48941;49.516;8.286;2022-11-20T10:32:31;29.93;;;15.83;;
62848;SDS011;48941;49.516;8.286;2022-11-20T10:35:05;29.13;;;15.07;;
62848;SDS011;48941;49.516;8.286;2022-11-20T10:37:42;31.88;;;17.73;;
62848;SDS011;48941;49.516;8.286;2022-11-20T10:40:17;32.58;;;17.27;;
62848;SDS011;48941;49.516;8.286;2022-11-20T10:42:51;38.92;;;20.23;;
62848;SDS011;48941;49.516;8.286;2022-11-20T10:45:28;31.83;;;16.02;;
62848;SDS011;48941;49.516;8.286;2022-11-20T10:48:07;30.60;;;16.00;;
62848;SDS011;48941;49.516;8.286;2022-11-20T10:50:41;33.45;;;16.65;;
62848;SDS011;48941;49.516;8.286;2022-11-20T10:53:19;31.33;;;16.48;;
62848;SDS011;48941;49.516;8.286;2022-11-20T10:56:00;31.92;;;15.52;;
62848;SDS011;48941;49.516;8.286;2022-11-20T10:58:38;30.00;;;15.95;;
62848;SDS011;48941;49.516;8.286;2022-11-20T11:01:14;28.90;;;14.77;;
62848;SDS011;48941;49.516;8.286;2022-11-20T11:03:43;30.42;;;14.45;;
62848;SDS011;48941;49.516;8.286;2022-11-20T11:06:12;29.92;;;14.57;;
62848;SDS011;48941;49.516;8.286;2022-11-20T11:08:49;29.17;;;14.18;;
62848;SDS011;48941;49.516;8.286;2022-11-20T11:11:20;31.50;;;16.42;;
62848;SDS011;48941;49.516;8.286;2022-11-20T11:13:51;31.83;;;17.38;;
62848;SDS011;48941;49.516;8.286;2022-11-20T11:18:49;32.22;;;16.75;;
62848;SDS011;48941;49.516;8.286;2022-11-20T11:21:23;53.67;;;29.45;;
62848;SDS011;48941;49.516;8.286;2022-11-20T11:23:59;33.33;;;19.08;;
62848;SDS011;48941;49.516;8.286;2022-11-20T11:26:53;30.77;;;16.30;;
62848;SDS011;48941;49.516;8.286;2022-11-20T11:29:32;27.88;;;16.70;;
62848;SDS011;48941;49.516;8.286;2022-11-20T11:32:04;33.08;;;16.65;;
62848;SDS011;48941;49.516;8.286;2022-11-20T11:34:33;28.20;;;15.98;;
62848;SDS011;48941;49.516;8.286;2022-11-20T11:37:01;26.08;;;14.05;;
62848;SDS011;48941;49.516;8.286;2022-11-20T11:39:30;27.17;;;14.70;;
62848;SDS011;48941;49.516;8.286;2022-11-20T11:42:01;29.02;;;16.05;;
62848;SDS011;48941;49.516;8.286;2022-11-20T11:44:30;27.80;;;15.88;;
62848;SDS011;48941;49.516;8.286;2022-11-20T11:47:21;27.60;;;15.75;;
62848;SDS011;48941;49.516;8.286;2022-11-20T11:50:00;28.17;;;14.63;;
62848;SDS011;48941;49.516;8.286;2022-11-20T11:52:29;22.98;;;13.63;;
62848;SDS011;48941;49.516;8.286;2022-11-20T11:55:00;27.48;;;15.15;;
62848;SDS011;48941;49.516;8.286;2022-11-20T11:57:37;30.52;;;17.65;;
62848;SDS011;48941;49.516;8.286;2022-11-20T12:00:14;35.75;;;21.65;;
62848;SDS011;48941;49.516;8.286;2022-11-20T12:02:48;22.70;;;13.50;;
62848;SDS011;48941;49.516;8.286;2022-11-20T12:05:25;31.05;;;17.73;;
62848;SDS011;48941;49.516;8.286;2022-11-20T12:07:57;33.70;;;19.58;;
62848;SDS011;48941;49.516;8.286;2022-11-20T12:10:36;25.95;;;14.63;;
62848;SDS011;48941;49.516;8.286;2022-11-20T12:13:15;24.58;;;13.73;;
62848;SDS011;48941;49.516;8.286;2022-11-20T12:15:50;20.02;;;12.25;;
62848;SDS011;48941;49.516;8.286;2022-11-20T12:18:19;19.60;;;11.30;;
62848;SDS011;48941;49.516;8.286;2022-11-20T12:20:53;20.45;;;11.23;;
62848;SDS011;48941;49.516;8.286;2022-11-20T12:23:31;19.08;;;10.93;;
62848;SDS011;48941;49.516;8.286;2022-11-20T12:26:10;18.42;;;10.90;;
62848;SDS011;48941;49.516;8.286;2022-11-20T12:28:54;20.63;;;12.82;;
62848;SDS011;48941;49.516;8.286;2022-11-20T12:31:45;20.70;;;12.75;;
62848;SDS011;48941;49.516;8.286;2022-11-20T12:34:25;19.58;;;12.43;;
62848;SDS011;48941;49.516;8.286;2022-11-20T12:37:17;18.42;;;10.85;;
62848;SDS011;48941;49.516;8.286;2022-11-20T12:39:58;19.75;;;12.05;;
62848;SDS011;48941;49.516;8.286;2022-11-20T12:42:40;25.10;;;15.15;;
62848;SDS011;48941;49.516;8.286;2022-11-20T12:45:42;22.13;;;13.13;;
62848;SDS011;48941;49.516;8.286;2022-11-20T12:48:32;25.65;;;13.75;;
62848;SDS011;48941;49.516;8.286;2022-11-20T12:51:24;18.45;;;11.95;;
62848;SDS011;48941;49.516;8.286;2022-11-20T12:54:29;21.23;;;11.70;;
62848;SDS011;48941;49.516;8.286;2022-11-20T12:57:21;10.00;;;5.53;;
62848;SDS011;48941;49.516;8.286;2022-11-20T13:00:00;6.25;;;3.30;;
62848;SDS011;48941;49.516;8.286;2022-11-20T13:02:36;4.03;;;2.60;;
62848;SDS011;48941;49.516;8.286;2022-11-20T13:05:17;5.15;;;2.28;;
62848;SDS011;48941;49.516;8.286;2022-11-20T13:07:50;4.95;;;2.50;;
62848;SDS011;48941;49.516;8.286;2022-11-20T13:10:23;8.05;;;3.17;;
62848;SDS011;48941;49.516;8.286;2022-11-20T13:13:00;3.65;;;2.70;;
62848;SDS011;48941;49.516;8.286;2022-11-20T13:15:42;5.28;;;2.63;;
62848;SDS011;48941;49.516;8.286;2022-11-20T13:18:15;5.60;;;3.00;;
62848;SDS011;48941;49.516;8.286;2022-11-20T13:20:46;10.27;;;4.00;;
62848;SDS011;48941;49.516;8.286;2022-11-20T13:23:22;6.13;;;3.60;;
62848;SDS011;48941;49.516;8.286;2022-11-20T13:26:02;9.68;;;5.45;;
62848;SDS011;48941;49.516;8.286;2022-11-20T13:28:30;12.52;;;5.40;;
62848;SDS011;48941;49.516;8.286;2022-11-20T13:30:58;10.80;;;4.68;;
62848;SDS011;48941;49.516;8.286;2022-11-20T13:33:28;5.30;;;3.30;;
62848;SDS011;48941;49.516;8.286;2022-11-20T13:36:00;9.45;;;5.03;;
62848;SDS011;48941;49.516;8.286;2022-11-20T13:38:39;9.13;;;4.75;;
62848;SDS011;48941;49.516;8.286;2022-11-20T13:41:10;4.53;;;2.80;;
62848;SDS011;48941;49.516;8.286;2022-11-20T13:43:58;6.18;;;3.00;;
62848;SDS011;48941;49.516;8.286;2022-11-20T13:46:35;6.68;;;3.40;;
62848;SDS011;48941;49.516;8.286;2022-11-20T13:49:08;10.68;;;3.20;;
62848;SDS011;48941;49.516;8.286;2022-11-20T13:51:42;3.15;;;2.20;;
62848;SDS011;48941;49.516;8.286;2022-11-20T13:57:24;4.38;;;2.15;;
62848;SDS011;48941;49.516;8.286;2022-11-20T14:00:07;2.10;;;1.65;;
62848;SDS011;48941;49.516;8.286;2022-11-20T14:02:39;3.45;;;1.73;;
62848;SDS011;48941;49.516;8.286;2022-11-20T14:05:11;7.13;;;2.25;;
62848;SDS011;48941;49.516;8.286;2022-11-20T14:07:47;9.23;;;2.25;;
62848;SDS011;48941;49.516;8.286;2022-11-20T14:10:22;4.13;;;1.60;;
62848;SDS011;48941;49.516;8.286;2022-11-20T14:12:57;3.17;;;1.92;;
62848;SDS011;48941;49.516;8.286;2022-11-20T14:15:27;2.50;;;1.70;;
62848;SDS011;48941;49.516;8.286;2022-11-20T14:17:57;4.57;;;1.98;;
62848;SDS011;48941;49.516;8.286;2022-11-20T14:20:26;2.67;;;1.73;;
62848;SDS011;48941;49.516;8.286;2022-11-20T14:22:57;5.00;;;2.67;;
62848;SDS011;48941;49.516;8.286;2022-11-20T14:25:25;4.93;;;2.30;;
62848;SDS011;48941;49.516;8.286;2022-11-20T14:27:54;8.45;;;2.97;;
62848;SDS011;48941;49.516;8.286;2022-11-20T14:30:25;4.90;;;1.85;;
62848;SDS011;48941;49.516;8.286;2022-11-20T14:32:54;5.07;;;1.90;;
62848;SDS011;48941;49.516;8.286;2022-11-20T14:35:25;10.77;;;5.72;;
62848;SDS011;48941;49.516;8.286;2022-11-20T14:37:54;6.03;;;2.70;;
62848;SDS011;48941;49.516;8.286;2022-11-20T14:40:25;7.32;;;2.60;;
62848;SDS011;48941;49.516;8.286;2022-11-20T14:42:55;3.95;;;2.80;;
62848;SDS011;48941;49.516;8.286;2022-11-20T14:45:24;5.45;;;3.20;;
62848;SDS011;48941;49.516;8.286;2022-11-20T14:47:53;8.52;;;4.57;;
62848;SDS011;48941;49.516;8.286;2022-11-20T14:50:24;12.50;;;6.30;;
62848;SDS011;48941;49.516;8.286;2022-11-20T14:52:53;9.38;;;3.40;;
62848;SDS011;48941;49.516;8.286;2022-11-20T14:55:28;5.60;;;2.60;;
62848;SDS011;48941;49.516;8.286;2022-11-20T14:57:58;8.93;;;4.63;;
62848;SDS011;48941;49.516;8.286;2022-11-20T15:00:27;7.82;;;3.20;;
62848;SDS011;48941;49.516;8.286;2022-11-20T15:02:56;5.68;;;3.47;;